Time;durP1;ratioP1;P1;durP2;ratioP2;P2;SDS_P1;SDS_P2;PMS_P1;PMS_P2;Temp;Humidity;BMP_temperature;BMP_pressure;BME280_temperature;BME280_humidity;BME280_pressure;Samples;Min_cycle;Max_cycle;Signal;HPM_P1;HPM_P2
2022/07/07 00:00:51;;;;;;;7.85;5.70;;;;;;;-148.88;86.64;75643.16;4998470;28;20030;-75
2022/07/07 00:03:17;;;;;;;9.20;5.53;;;;;;;-148.88;86.31;75643.16;4996475;28;20022;-75
2022/07/07 00:05:42;;;;;;;8.85;5.57;;;;;;;-148.88;87.53;75647.22;4996464;28;20076;-74
2022/07/07 00:08:07;;;;;;;11.65;5.93;;;;;;;-148.88;88.31;75643.16;4996490;28;20023;-75
2022/07/07 00:10:33;;;;;;;9.30;6.00;;;;;;;-148.88;89.38;75641.13;4997648;28;20026;-75
2022/07/07 00:12:58;;;;;;;9.32;5.40;;;;;;;-148.88;88.44;75643.16;4997291;28;20026;-74
2022/07/07 00:15:24;;;;;;;10.13;6.10;;;;;;;-148.88;90.05;75649.25;4996107;28;20085;-74
2022/07/07 00:17:49;;;;;;;11.10;6.25;;;;;;;-148.88;89.52;75647.22;4996097;28;20030;-74
2022/07/07 00:20:14;;;;;;;14.30;6.65;;;;;;;-148.88;89.96;75655.34;4997082;28;20026;-74
2022/07/07 00:22:40;;;;;;;9.60;6.07;;;;;;;-148.88;89.66;75637.06;4997172;28;20026;-74
2022/07/07 00:25:06;;;;;;;8.57;6.25;;;;;;;-148.88;89.82;75645.19;4995952;28;20442;-74
2022/07/07 00:27:31;;;;;;;9.10;6.05;;;;;;;-148.88;90.61;75643.16;4996094;28;20022;-75
2022/07/07 00:29:57;;;;;;;10.82;6.38;;;;;;;-148.88;91.08;75649.25;4997045;28;20026;-75
2022/07/07 00:32:23;;;;;;;8.13;5.68;;;;;;;-148.88;93.56;75647.22;4996081;28;20026;-75
2022/07/07 00:34:48;;;;;;;11.50;7.15;;;;;;;-148.88;93.51;75653.31;4998308;28;20038;-75
2022/07/07 00:37:13;;;;;;;10.43;6.32;;;;;;;-148.88;93.92;75655.34;4996317;28;20030;-75
2022/07/07 00:39:39;;;;;;;10.73;6.78;;;;;;;-148.88;93.70;75649.25;4996231;28;20034;-75
2022/07/07 00:42:04;;;;;;;9.43;6.32;;;;;;;-148.88;94.07;75635.03;4995861;28;20027;-75
2022/07/07 00:44:30;;;;;;;7.90;6.57;;;;;;;-148.88;94.58;75639.09;4995874;28;20046;-74
2022/07/07 00:46:58;;;;;;;9.13;7.18;;;;;;;-148.88;94.72;75633.00;4996984;28;20026;-74
2022/07/07 00:49:23;;;;;;;10.73;6.47;;;;;;;-148.88;95.58;75633.00;4996826;28;20026;-74
2022/07/07 00:51:49;;;;;;;7.93;6.43;;;;;;;-148.88;95.97;75630.97;4996779;28;20069;-74
2022/07/07 00:54:15;;;;;;;9.40;6.65;;;;;;;-148.88;95.68;75643.16;4996678;28;20403;-74
2022/07/07 00:56:41;;;;;;;10.50;6.22;;;;;;;-148.88;96.16;75643.16;4995320;28;20033;-75
2022/07/07 00:59:07;;;;;;;9.20;6.30;;;;;;;-148.88;95.55;75630.97;4995543;28;20030;-75
2022/07/07 01:01:41;;;;;;;10.75;6.13;;;;;;;-148.88;94.41;75639.09;4995427;28;20022;-75
2022/07/07 01:04:12;;;;;;;12.55;6.35;;;;;;;-148.88;93.77;75630.97;4995366;28;20030;-74
2022/07/07 01:06:38;;;;;;;10.75;7.28;;;;;;;-148.88;93.75;75622.84;4996533;28;20069;-75
2022/07/07 01:09:04;;;;;;;10.57;7.30;;;;;;;-148.88;94.00;75630.97;4995657;28;20018;-75
2022/07/07 01:11:53;;;;;;;14.20;6.95;;;;;;;-148.88;94.77;75628.94;4997760;28;20435;-75
2022/07/07 01:14:19;;;;;;;10.00;6.95;;;;;;;-148.88;95.34;75633.00;4996538;28;20073;-75
2022/07/07 01:16:45;;;;;;;9.90;6.90;;;;;;;-148.88;95.29;75622.84;4995784;28;20053;-75
2022/07/07 01:19:12;;;;;;;11.90;7.57;;;;;;;-148.88;95.68;75624.88;4995551;28;20026;-75
2022/07/07 01:21:51;;;;;;;11.77;7.93;;;;;;;-148.88;96.28;75630.97;4994905;28;20018;-75
2022/07/07 01:24:17;;;;;;;11.15;7.97;;;;;;;-148.88;95.79;75622.84;4996125;28;20026;-75
2022/07/07 01:26:42;;;;;;;11.57;8.38;;;;;;;-148.88;96.92;75630.97;4995809;28;20109;-74
2022/07/07 01:29:08;;;;;;;11.93;8.30;;;;;;;-148.88;96.34;75628.94;4995955;28;20022;-74
2022/07/07 01:31:33;;;;;;;11.57;8.38;;;;;;;-148.88;98.43;75630.97;4994736;28;20395;-74
2022/07/07 01:33:58;;;;;;;11.73;8.50;;;;;;;-148.88;98.60;75616.75;4994729;28;20054;-74
2022/07/07 01:36:24;;;;;;;12.70;8.88;;;;;;;-148.88;98.98;75630.97;4996034;28;20022;-74
2022/07/07 01:38:49;;;;;;;12.27;9.52;;;;;;;-148.88;99.48;75630.97;4995660;28;20077;-74
2022/07/07 01:41:14;;;;;;;12.25;9.25;;;;;;;-148.88;99.84;75624.88;4994819;28;20514;-74
2022/07/07 01:43:39;;;;;;;13.82;9.30;;;;;;;-148.88;99.26;75618.78;4995695;28;20141;-75
2022/07/07 01:46:05;;;;;;;15.70;9.50;;;;;;;-148.88;99.69;75624.88;4995696;28;20022;-74
2022/07/07 01:48:30;;;;;;;13.02;9.00;;;;;;;-148.88;99.97;75618.78;4995789;28;20064;-74
2022/07/07 01:50:55;;;;;;;12.05;9.52;;;;;;;-148.88;100.00;75618.78;4994610;28;20484;-74
2022/07/07 01:53:20;;;;;;;11.52;9.80;;;;;;;-148.88;100.00;75606.59;4996247;28;20030;-74
2022/07/07 01:55:46;;;;;;;12.55;9.38;;;;;;;-148.88;100.00;75608.63;4995745;28;20026;-74
2022/07/07 01:58:11;;;;;;;17.17;9.65;;;;;;;-148.88;100.00;75614.72;4996094;28;20037;-75
2022/07/07 02:00:36;;;;;;;10.48;8.50;;;;;;;-148.88;100.00;75608.63;4995555;28;20045;-74
2022/07/07 02:03:02;;;;;;;11.93;8.20;;;;;;;-148.88;100.00;75592.38;4995440;28;20048;-74
2022/07/07 02:05:27;;;;;;;12.98;9.25;;;;;;;-148.88;100.00;75596.44;4995048;28;20030;-74
2022/07/07 02:07:52;;;;;;;13.35;9.15;;;;;;;-148.88;100.00;75598.47;4994080;28;20081;-74
2022/07/07 02:11:12;;;;;;;14.18;9.40;;;;;;;-148.88;100.00;75600.50;4995415;28;20511;-74
2022/07/07 02:13:04;;;;;;;12.77;8.80;;;;;;;-148.88;100.00;75598.47;4994964;28;20029;-74
2022/07/07 02:15:30;;;;;;;13.88;9.48;;;;;;;-148.88;100.00;75598.47;4995062;28;20073;-74
2022/07/07 02:17:55;;;;;;;12.60;9.40;;;;;;;-148.88;100.00;75596.44;4994976;28;20483;-74
2022/07/07 02:20:20;;;;;;;13.25;10.38;;;;;;;-148.88;100.00;75590.34;4994797;28;20395;-74
2022/07/07 02:22:46;;;;;;;14.30;10.13;;;;;;;-148.88;100.00;75594.44;4994832;28;20072;-74
2022/07/07 02:25:11;;;;;;;15.68;11.23;;;;;;;-148.88;100.00;75590.34;4994914;28;20019;-74
2022/07/07 02:27:36;;;;;;;16.00;11.25;;;;;;;-148.88;100.00;75588.34;4994946;28;20046;-74
2022/07/07 02:30:02;;;;;;;15.38;11.57;;;;;;;-148.88;100.00;75568.03;4994932;28;20068;-74
2022/07/07 02:32:27;;;;;;;15.63;11.13;;;;;;;-148.88;100.00;75574.13;4995093;28;20026;-74
2022/07/07 02:34:52;;;;;;;16.20;11.43;;;;;;;-148.88;100.00;75555.84;4993612;28;20122;-74
2022/07/07 02:37:18;;;;;;;13.43;10.68;;;;;;;-148.88;100.00;75559.91;4993396;28;20022;-74
2022/07/07 02:39:43;;;;;;;14.93;11.25;;;;;;;-148.88;100.00;75561.94;4994549;28;20022;-74
2022/07/07 02:42:08;;;;;;;16.88;11.65;;;;;;;-148.88;100.00;75557.88;4993303;28;20109;-74
2022/07/07 02:44:33;;;;;;;14.93;11.82;;;;;;;-148.88;100.00;75557.88;4994496;28;20034;-74
2022/07/07 02:46:59;;;;;;;14.60;11.13;;;;;;;-148.88;100.00;75553.81;4993347;28;20074;-74
2022/07/07 02:49:24;;;;;;;13.27;10.95;;;;;;;-148.88;100.00;75553.81;4994585;28;20069;-74
2022/07/07 02:51:49;;;;;;;14.95;11.88;;;;;;;-148.88;100.00;75549.75;4994484;28;20022;-74
2022/07/07 02:54:14;;;;;;;16.65;12.35;;;;;;;-148.88;100.00;75539.59;4994664;28;20026;-74
2022/07/07 02:56:40;;;;;;;14.98;10.75;;;;;;;-148.88;100.00;75537.56;4994376;28;20045;-74
2022/07/07 02:59:05;;;;;;;14.05;10.60;;;;;;;-148.88;100.00;75537.56;4994431;28;20031;-74
2022/07/07 03:01:30;;;;;;;14.63;11.30;;;;;;;-148.88;100.00;75529.44;4994228;28;20034;-74
2022/07/07 03:03:56;;;;;;;16.13;11.20;;;;;;;-148.88;100.00;75533.50;4994343;28;20105;-74
2022/07/07 03:06:21;;;;;;;14.98;10.65;;;;;;;-148.88;100.00;75525.38;4994613;28;20384;-74
2022/07/07 03:08:47;;;;;;;12.52;10.02;;;;;;;-148.88;100.00;75521.31;4994906;28;20018;-74
2022/07/07 03:11:12;;;;;;;14.77;10.63;;;;;;;-148.88;100.00;75521.31;4993294;28;20534;-74
2022/07/07 03:13:37;;;;;;;14.25;10.25;;;;;;;-148.88;100.00;75517.25;4994263;28;20496;-74
2022/07/07 03:16:03;;;;;;;12.40;9.85;;;;;;;-148.88;100.00;75515.22;4992830;28;20093;-75
2022/07/07 03:18:28;;;;;;;13.00;10.30;;;;;;;-148.88;100.00;75509.13;4994219;28;20026;-74
2022/07/07 03:20:54;;;;;;;13.07;10.43;;;;;;;-148.88;100.00;75515.22;4994216;28;20029;-74
2022/07/07 03:23:19;;;;;;;14.60;10.55;;;;;;;-148.88;100.00;75517.25;4994537;28;20022;-75
2022/07/07 03:25:44;;;;;;;15.63;11.45;;;;;;;-148.88;100.00;75529.44;4992937;28;20036;-76
2022/07/07 03:28:09;;;;;;;16.30;11.50;;;;;;;-148.88;100.00;75525.38;4994150;28;20030;-75
2022/07/07 03:30:35;;;;;;;14.32;10.52;;;;;;;-148.88;100.00;75519.28;4993866;28;20131;-75
2022/07/07 03:33:00;;;;;;;18.60;11.60;;;;;;;-148.88;100.00;75525.38;4992643;28;20022;-76
2022/07/07 03:35:25;;;;;;;17.25;12.18;;;;;;;-148.88;100.00;75521.31;4993976;28;20038;-75
2022/07/07 03:37:51;;;;;;;16.17;13.05;;;;;;;-148.88;100.00;75515.22;4993816;28;20034;-75
2022/07/07 03:40:16;;;;;;;16.52;12.02;;;;;;;-148.88;100.00;75511.16;4993797;28;20033;-75
2022/07/07 03:42:41;;;;;;;16.85;11.45;;;;;;;-148.88;100.00;75501.00;4993046;28;20018;-75
2022/07/07 03:45:08;;;;;;;14.38;10.80;;;;;;;-148.88;100.00;75507.09;4993270;28;20029;-75
2022/07/07 03:47:33;;;;;;;15.35;12.10;;;;;;;-148.88;100.00;75505.06;4994580;28;20028;-75
2022/07/07 03:49:58;;;;;;;16.27;12.18;;;;;;;-148.88;100.00;75501.00;4994656;28;20026;-76
2022/07/07 03:52:24;;;;;;;17.98;13.43;;;;;;;-148.88;100.00;75505.06;4994778;28;20053;-75
2022/07/07 03:54:49;;;;;;;16.95;13.45;;;;;;;-148.88;100.00;75509.13;4994493;28;20057;-75
2022/07/07 03:57:14;;;;;;;17.60;13.35;;;;;;;-148.88;100.00;75501.00;4994499;28;20030;-75
2022/07/07 03:59:40;;;;;;;16.73;12.95;;;;;;;-148.88;100.00;75496.94;4992976;28;20032;-75
2022/07/07 04:02:05;;;;;;;19.60;14.07;;;;;;;-148.88;100.00;75501.00;4992775;28;20117;-75
2022/07/07 04:04:30;;;;;;;20.10;13.43;;;;;;;-148.88;100.00;75501.00;4994384;28;20081;-76
2022/07/07 04:06:55;;;;;;;19.50;14.45;;;;;;;-148.88;100.00;75505.06;4993059;28;20053;-75
2022/07/07 04:09:21;;;;;;;18.88;14.02;;;;;;;-148.88;100.00;75501.00;4993929;28;20034;-75
2022/07/07 04:11:46;;;;;;;20.52;14.13;;;;;;;-148.88;100.00;75488.81;4994252;28;20117;-75
2022/07/07 04:14:11;;;;;;;18.73;13.85;;;;;;;-148.88;100.00;75480.69;4993070;28;20027;-75
2022/07/07 04:16:37;;;;;;;20.98;15.20;;;;;;;-148.88;100.00;75484.75;4994025;28;20546;-75
2022/07/07 04:19:02;;;;;;;18.10;14.40;;;;;;;-148.88;100.00;75480.69;4993363;28;20026;-76
2022/07/07 04:21:27;;;;;;;19.10;14.38;;;;;;;-148.88;100.00;75480.69;4993694;28;20098;-75
2022/07/07 04:23:54;;;;;;;21.40;15.25;;;;;;;-148.88;100.00;75496.94;4993909;28;20030;-75
2022/07/07 04:26:19;;;;;;;21.20;15.95;;;;;;;-148.88;100.00;75494.91;4994079;28;20457;-75
2022/07/07 04:28:44;;;;;;;18.17;15.02;;;;;;;-148.88;100.00;75488.81;4994364;28;20022;-75
2022/07/07 04:31:09;;;;;;;23.35;15.40;;;;;;;-148.88;100.00;75484.75;4997273;28;20014;-75
2022/07/07 04:33:35;;;;;;;21.65;15.10;;;;;;;-148.88;100.00;75484.75;4995985;28;20526;-75
2022/07/07 04:36:00;;;;;;;23.20;16.83;;;;;;;-148.88;100.00;75480.69;4995709;28;20033;-75
2022/07/07 04:38:26;;;;;;;22.23;15.80;;;;;;;-148.88;100.00;75476.63;4996887;28;20423;-75
2022/07/07 04:40:51;;;;;;;20.35;15.40;;;;;;;-148.88;100.00;75480.69;4996686;28;20396;-75
2022/07/07 04:43:16;;;;;;;20.15;15.95;;;;;;;-148.88;100.00;75472.56;4996834;28;20045;-75
2022/07/07 04:45:42;;;;;;;21.15;15.77;;;;;;;-148.88;100.00;75468.50;4995534;28;20510;-75
2022/07/07 04:48:07;;;;;;;21.30;15.68;;;;;;;-148.88;100.00;75460.38;4996545;28;20057;-75
2022/07/07 04:50:32;;;;;;;21.60;15.40;;;;;;;-148.88;100.00;75454.28;4996744;28;20026;-76
2022/07/07 04:52:58;;;;;;;20.80;15.27;;;;;;;-148.88;100.00;75458.34;4996425;28;20054;-75
2022/07/07 04:55:23;;;;;;;19.05;15.02;;;;;;;-148.88;100.00;75456.31;4995361;28;20029;-77
2022/07/07 04:57:48;;;;;;;19.90;16.23;;;;;;;-148.88;100.00;75464.44;4995105;28;20022;-79
2022/07/07 05:00:14;;;;;;;24.92;17.83;;;;;;;-148.88;100.00;75456.31;5009201;23;20051;-77
2022/07/07 05:02:40;;;;;;;23.23;17.20;;;;;;;-148.88;100.00;75460.38;4996991;28;20045;-77
2022/07/07 05:05:06;;;;;;;25.02;18.35;;;;;;;-148.88;100.00;75454.28;5000908;28;20031;-77
2022/07/07 05:07:32;;;;;;;24.50;18.45;;;;;;;-148.88;100.00;75458.34;4996561;28;20040;-78
2022/07/07 05:09:57;;;;;;;24.17;19.42;;;;;;;-148.88;100.00;75452.25;4996270;28;20110;-78
2022/07/07 05:12:22;;;;;;;26.70;19.73;;;;;;;-148.88;100.00;75460.38;4995714;28;20026;-77
2022/07/07 05:14:48;;;;;;;23.75;19.52;;;;;;;-148.88;100.00;75458.34;4995965;28;20022;-77
2022/07/07 05:17:13;;;;;;;27.75;20.75;;;;;;;-148.88;100.00;75462.41;4994648;28;20061;-77
2022/07/07 05:19:38;;;;;;;28.90;21.48;;;;;;;-148.88;100.00;75472.56;4995800;28;20058;-77
2022/07/07 05:22:04;;;;;;;30.33;21.92;;;;;;;-148.88;100.00;75466.47;4995703;28;20030;-78
2022/07/07 05:24:29;;;;;;;30.92;23.40;;;;;;;-148.88;100.00;75484.75;4995756;28;20026;-77
2022/07/07 05:26:54;;;;;;;30.70;23.48;;;;;;;-148.88;100.00;75482.72;4994392;28;20039;-77
2022/07/07 05:29:20;;;;;;;24.50;18.63;;;;;;;-148.88;100.00;75482.72;4994602;28;20042;-77
2022/07/07 05:31:45;;;;;;;18.08;14.02;;;;;;;-148.88;100.00;75480.69;4995457;28;20540;-77
2022/07/07 05:34:10;;;;;;;13.90;11.45;;;;;;;-148.88;100.00;75472.56;4995541;28;20030;-77
2022/07/07 05:36:35;;;;;;;13.00;10.52;;;;;;;-148.88;100.00;75470.53;4995629;28;20065;-77
2022/07/07 05:39:01;;;;;;;13.57;10.27;;;;;;;-148.88;100.00;75468.50;4995388;28;20057;-78
2022/07/07 05:41:27;;;;;;;14.68;11.05;;;;;;;-148.88;100.00;75460.38;4993048;28;20018;-77
2022/07/07 05:43:52;;;;;;;14.38;10.93;;;;;;;-148.88;100.00;75444.13;4996543;28;20030;-77
2022/07/07 05:46:17;;;;;;;14.10;10.40;;;;;;;-148.88;100.00;75456.31;4995602;28;20030;-77
2022/07/07 05:48:43;;;;;;;12.52;9.65;;;;;;;-148.88;100.00;75452.25;4995203;28;20539;-77
2022/07/07 05:51:08;;;;;;;11.52;10.27;;;;;;;-148.88;100.00;75442.09;4993893;28;20018;-77
2022/07/07 05:53:33;;;;;;;13.32;10.75;;;;;;;-148.88;100.00;75446.16;4995488;28;20033;-77
2022/07/07 05:55:59;;;;;;;16.00;10.73;;;;;;;-148.88;100.00;75444.13;4994000;28;20403;-77
2022/07/07 05:58:24;;;;;;;15.10;10.57;;;;;;;-148.88;100.00;75442.09;4995097;28;20026;-77
2022/07/07 06:00:49;;;;;;;16.25;11.73;;;;;;;-148.88;100.00;75440.06;4993822;28;20033;-78
2022/07/07 06:03:15;;;;;;;12.73;10.10;;;;;;;-148.88;100.00;75446.16;4995529;28;20460;-78
2022/07/07 06:05:41;;;;;;;12.20;9.10;;;;;;;-148.88;100.00;75452.25;4993946;28;20034;-78
2022/07/07 06:08:08;;;;;;;10.07;8.57;;;;;;;-148.88;100.00;75462.41;4993664;28;20112;-77
2022/07/07 06:10:33;;;;;;;10.00;7.80;;;;;;;-148.88;100.00;75452.25;4994970;28;20038;-77
2022/07/07 06:12:59;;;;;;;8.23;6.32;;;;;;;-148.88;100.00;75450.22;4994921;28;20102;-77
2022/07/07 06:15:24;;;;;;;7.85;5.40;;;;;;;-148.88;100.00;75456.31;4995073;28;20430;-77
2022/07/07 06:17:49;;;;;;;5.57;4.55;;;;;;;-148.88;100.00;75440.06;4995207;28;20037;-78
2022/07/07 06:20:15;;;;;;;6.72;4.28;;;;;;;-148.88;100.00;75438.03;4995128;28;20027;-78
2022/07/07 06:22:40;;;;;;;7.40;4.20;;;;;;;-148.88;100.00;75433.97;4995158;28;20023;-78
2022/07/07 06:25:08;;;;;;;5.57;4.32;;;;;;;-148.88;100.00;75413.66;4993474;28;20029;-77
2022/07/07 06:27:34;;;;;;;4.22;3.45;;;;;;;-148.88;100.00;75427.88;4994624;28;20081;-78
2022/07/07 06:29:59;;;;;;;6.22;3.35;;;;;;;-148.88;100.00;75423.81;4994596;28;20049;-77
2022/07/07 06:32:24;;;;;;;6.13;3.92;;;;;;;-148.88;100.00;75421.78;4994685;28;20034;-77
2022/07/07 06:34:50;;;;;;;5.68;3.67;;;;;;;-148.88;100.00;75415.69;4993147;28;20023;-77
2022/07/07 06:37:15;;;;;;;7.20;3.85;;;;;;;-148.88;100.00;75431.94;4994462;28;20391;-77
2022/07/07 06:39:40;;;;;;;5.78;4.15;;;;;;;-148.88;100.00;75427.88;4994288;28;20026;-77
2022/07/07 06:42:06;;;;;;;7.55;4.60;;;;;;;-148.88;100.00;75427.88;4994354;28;20014;-77
2022/07/07 06:44:32;;;;;;;5.97;4.80;;;;;;;-148.88;100.00;75421.78;4994319;28;20040;-77
2022/07/07 06:46:58;;;;;;;5.30;4.63;;;;;;;-148.88;100.00;75427.88;4994538;28;20032;-77
2022/07/07 06:49:24;;;;;;;6.32;4.72;;;;;;;-148.88;100.00;75425.84;4993060;28;20032;-78
2022/07/07 06:51:50;;;;;;;7.13;5.00;;;;;;;-148.88;100.00;75423.81;4994201;28;20022;-78
2022/07/07 06:54:15;;;;;;;7.53;5.15;;;;;;;-148.88;100.00;75413.66;4993540;28;20023;-78
2022/07/07 06:56:40;;;;;;;7.70;5.07;;;;;;;-148.88;100.00;75413.66;4994431;28;20034;-77
2022/07/07 06:59:06;;;;;;;7.10;5.25;;;;;;;-148.88;100.00;75415.69;4994309;28;20026;-77
2022/07/07 07:01:31;;;;;;;4.85;4.20;;;;;;;-148.88;100.00;75411.63;4993934;28;20026;-77
2022/07/07 07:03:56;;;;;;;5.22;4.35;;;;;;;-148.88;100.00;75401.47;4994233;28;20384;-77
2022/07/07 07:06:22;;;;;;;6.10;4.45;;;;;;;-148.88;100.00;75403.50;4993081;28;20030;-77
2022/07/07 07:08:48;;;;;;;5.07;3.75;;;;;;;-148.88;100.00;75407.56;4994312;28;20484;-77
2022/07/07 07:11:14;;;;;;;5.43;3.90;;;;;;;-148.88;100.00;75407.56;4992809;28;20026;-77
2022/07/07 07:13:39;;;;;;;6.57;3.97;;;;;;;-148.88;100.00;75436.00;4994129;28;20491;-77
2022/07/07 07:16:04;;;;;;;6.35;3.55;;;;;;;-148.88;100.00;75442.09;4993255;28;20027;-77
2022/07/07 07:18:30;;;;;;;8.25;3.90;;;;;;;-148.88;100.00;75456.31;4993326;28;20030;-78
2022/07/07 07:20:55;;;;;;;4.40;2.35;;;;;;;-148.88;100.00;75466.47;4993204;28;20446;-78
2022/07/07 07:23:21;;;;;;;3.47;2.78;;;;;;;-148.88;100.00;75456.31;4993314;28;20022;-78
2022/07/07 07:25:46;;;;;;;3.85;3.20;;;;;;;-148.88;100.00;75456.31;4993374;28;20037;-78
2022/07/07 07:28:12;;;;;;;3.35;2.83;;;;;;;-148.88;100.00;75458.34;4991775;28;20026;-77
2022/07/07 07:30:37;;;;;;;5.03;2.35;;;;;;;-148.88;100.00;75466.47;4991776;28;20511;-78
2022/07/07 07:33:02;;;;;;;3.28;2.50;;;;;;;-148.88;100.00;75458.34;4991777;28;20038;-77
2022/07/07 07:35:28;;;;;;;4.28;1.90;;;;;;;-148.88;100.00;75470.53;4993681;28;20022;-78
2022/07/07 07:37:53;;;;;;;4.07;1.90;;;;;;;-148.88;100.00;75468.50;4994072;28;20034;-78
2022/07/07 07:40:18;;;;;;;3.95;1.50;;;;;;;-148.88;100.00;75472.56;4993929;28;20026;-78
2022/07/07 07:42:44;;;;;;;3.25;1.75;;;;;;;-148.88;100.00;75472.56;4994308;28;20101;-77
2022/07/07 07:45:09;;;;;;;3.85;1.20;;;;;;;-148.88;100.00;75472.56;4993661;28;20036;-77
2022/07/07 07:47:35;;;;;;;5.82;1.10;;;;;;;-148.88;100.00;75480.69;4993876;28;20105;-77
2022/07/07 07:50:01;;;;;;;4.50;1.27;;;;;;;-148.88;100.00;75468.50;4993750;28;20030;-77
2022/07/07 07:52:26;;;;;;;3.55;1.17;;;;;;;-148.88;100.00;75464.44;4993466;28;20034;-78
2022/07/07 07:54:52;;;;;;;3.15;1.25;;;;;;;-148.88;100.00;75458.34;4992975;28;20046;-77
2022/07/07 07:57:18;;;;;;;2.88;1.42;;;;;;;-148.88;100.00;75444.13;4993340;28;20029;-77
2022/07/07 07:59:43;;;;;;;3.67;1.58;;;;;;;-148.88;100.00;75438.03;4993136;28;20101;-77
2022/07/07 08:02:08;;;;;;;4.45;1.25;;;;;;;-148.88;100.00;75431.94;4993500;28;20108;-77
2022/07/07 08:04:34;;;;;;;2.95;1.40;;;;;;;-148.88;100.00;75423.81;4994661;28;20037;-77
2022/07/07 08:07:00;;;;;;;6.22;1.70;;;;;;;-148.88;100.00;75444.13;4996904;28;20095;-80
2022/07/07 08:09:26;;;;;;;5.30;1.60;;;;;;;-148.88;100.00;75448.19;4996552;28;20030;-77
2022/07/07 08:11:52;;;;;;;5.10;1.30;;;;;;;-148.88;100.00;75476.63;4996888;28;20105;-78
2022/07/07 08:14:17;;;;;;;3.65;1.52;;;;;;;-148.88;100.00;75480.69;4997479;28;20084;-78
2022/07/07 08:16:42;;;;;;;3.42;1.50;;;;;;;-148.88;100.00;75476.63;4996747;28;20098;-78
2022/07/07 08:19:07;;;;;;;3.17;1.25;;;;;;;-148.88;100.00;75492.88;4996678;28;20468;-77
2022/07/07 08:21:33;;;;;;;3.97;1.40;;;;;;;-148.88;100.00;75488.81;4996808;28;20105;-78
2022/07/07 08:23:58;;;;;;;5.88;2.00;;;;;;;-148.88;100.00;75476.63;4997473;28;20057;-78
2022/07/07 08:26:23;;;;;;;4.10;1.48;;;;;;;-148.88;100.00;75480.69;4996431;28;20076;-78
2022/07/07 08:28:49;;;;;;;6.13;1.67;;;;;;;-148.88;100.00;75505.06;4997129;28;20018;-78
2022/07/07 08:31:14;;;;;;;7.40;1.65;;;;;;;-148.88;100.00;75498.97;4996909;28;20034;-79
2022/07/07 08:33:39;;;;;;;4.75;1.70;;;;;;;-148.88;100.00;75503.03;4997026;28;20029;-78
2022/07/07 08:36:05;;;;;;;7.07;2.13;;;;;;;-148.88;100.00;75501.00;4996596;28;20345;-77
2022/07/07 08:38:30;;;;;;;9.68;2.00;;;;;;;-148.88;100.00;75470.53;4996737;28;20504;-77
2022/07/07 08:40:55;;;;;;;5.22;1.65;;;;;;;-148.88;100.00;75482.72;4996194;28;20027;-78
2022/07/07 08:43:21;;;;;;;7.10;1.50;;;;;;;-148.88;100.00;75480.69;4996661;28;20072;-77
2022/07/07 08:45:48;;;;;;;5.70;1.67;;;;;;;-148.88;100.00;75470.53;4996104;28;20030;-77
2022/07/07 08:48:13;;;;;;;4.53;1.75;;;;;;;-148.88;99.79;75478.66;4996630;28;20023;-77
2022/07/07 08:50:39;;;;;;;4.95;1.63;;;;;;;-148.88;99.12;75478.66;4995965;28;20109;-77
2022/07/07 08:53:06;;;;;;;4.70;1.60;;;;;;;-148.88;99.49;75480.69;5015064;28;20026;-77
2022/07/07 08:55:35;;;;;;;6.03;1.70;;;;;;;-148.88;98.61;75478.66;5012531;28;20099;-76
2022/07/07 08:58:01;;;;;;;7.82;1.75;;;;;;;-148.88;98.08;75490.84;5014739;28;20036;-76
2022/07/07 09:00:27;;;;;;;4.80;1.90;;;;;;;-148.88;98.09;75460.38;5015142;28;20034;-77
2022/07/07 09:02:57;;;;;;;5.60;1.80;;;;;;;-148.88;98.15;75448.19;5014769;28;20129;-76
2022/07/07 09:05:22;;;;;;;8.38;1.63;;;;;;;-148.88;97.49;75452.25;5008580;23;20053;-87
2022/07/07 09:07:52;;;;;;;4.00;1.73;;;;;;;-148.88;97.20;75460.38;4996813;28;20064;-88
2022/07/07 09:10:32;;;;;;;6.80;1.50;;;;;;;-148.88;97.37;75458.34;4995648;28;20504;-88
2022/07/07 09:12:57;;;;;;;4.30;1.80;;;;;;;-148.88;95.65;75460.38;4995183;28;20018;-89
2022/07/07 09:15:22;;;;;;;5.20;1.85;;;;;;;-148.88;97.78;75444.13;4994907;28;20026;-88
2022/07/07 09:17:49;;;;;;;5.78;1.92;;;;;;;-148.88;99.38;75411.63;4994755;28;20113;-87
2022/07/07 09:20:14;;;;;;;5.72;2.25;;;;;;;-148.88;100.00;75395.38;4996080;28;20164;-88
2022/07/07 09:22:47;;;;;;;5.28;1.80;;;;;;;-148.88;99.15;75395.38;4994996;28;20026;-88
2022/07/07 09:25:15;;;;;;;6.57;1.60;;;;;;;-148.88;98.89;75389.28;5006261;28;20026;-88
2022/07/07 09:28:01;;;;;;;5.05;1.55;;;;;;;-148.88;97.41;75433.97;4995011;28;20037;-87
2022/07/07 09:30:40;;;;;;;6.35;2.38;;;;;;;-148.88;97.56;75496.94;4995392;28;20022;-87
2022/07/07 09:33:08;;;;;;;7.38;2.00;;;;;;;-148.88;98.85;75492.88;5000523;28;20034;-88
2022/07/07 09:38:28;;;;;;;5.03;1.95;;;;;;;-148.88;97.97;75480.69;4997201;28;20167;-89
2022/07/07 09:41:12;;;;;;;6.95;1.98;;;;;;;-148.88;96.09;75480.69;4994519;28;20022;-88
2022/07/07 09:43:45;;;;;;;5.72;2.00;;;;;;;-148.88;94.77;75452.25;4995534;28;20030;-88
2022/07/07 09:46:36;;;;;;;4.65;1.60;;;;;;;-148.88;93.83;75417.72;4994940;28;20026;-88
2022/07/07 09:49:02;;;;;;;7.07;1.92;;;;;;;-148.88;90.46;75436.00;4990712;28;20447;-88
2022/07/07 09:51:32;;;;;;;5.57;1.67;;;;;;;-148.88;90.63;75413.66;4995297;28;20481;-88
2022/07/07 09:54:03;;;;;;;6.65;1.55;;;;;;;-148.88;89.90;75397.41;4998764;28;20036;-88
2022/07/07 09:56:40;;;;;;;6.18;1.67;;;;;;;-148.88;88.77;75429.91;4994066;28;20084;-87
2022/07/07 09:59:09;;;;;;;7.70;1.70;;;;;;;-148.88;89.07;75438.03;4993782;28;20026;-88
2022/07/07 10:01:37;;;;;;;4.93;1.58;;;;;;;-148.88;88.67;75391.31;4993865;28;20393;-89
2022/07/07 10:04:05;;;;;;;5.50;1.70;;;;;;;-148.88;86.45;75407.56;4994909;28;20034;-88
2022/07/07 10:06:33;;;;;;;7.95;1.67;;;;;;;-148.88;87.45;75391.31;4994552;28;20069;-89
2022/07/07 10:09:10;;;;;;;5.03;1.73;;;;;;;-148.88;87.72;75379.13;4993857;28;20026;-89
2022/07/07 10:11:39;;;;;;;3.67;1.48;;;;;;;-148.88;84.54;75342.56;4994223;28;20023;-89
2022/07/07 10:14:16;;;;;;;7.00;1.80;;;;;;;-148.88;87.30;75328.34;4994360;28;20105;-89
2022/07/07 10:16:46;;;;;;;5.60;2.03;;;;;;;-148.88;85.70;75350.69;4994222;28;20501;-89
2022/07/07 10:19:14;;;;;;;7.47;1.67;;;;;;;-148.88;84.98;75362.88;4994477;28;20023;-88
2022/07/07 10:21:41;;;;;;;7.65;2.25;;;;;;;-148.88;87.19;75354.75;4994969;28;20026;-89
2022/07/07 10:24:07;;;;;;;5.82;1.65;;;;;;;-148.88;87.19;75356.78;4993567;28;20034;-90
2022/07/07 10:26:47;;;;;;;5.95;1.48;;;;;;;-148.88;86.29;75397.41;4992957;28;20022;-90
2022/07/07 10:29:12;;;;;;;6.22;1.75;;;;;;;-148.88;85.69;75391.31;4993569;28;20026;-89
2022/07/07 10:31:38;;;;;;;5.75;1.80;;;;;;;-148.88;84.27;75395.38;4995123;28;20030;-86
2022/07/07 10:34:05;;;;;;;5.65;1.80;;;;;;;-148.88;84.30;75383.19;4993730;28;20023;-87
2022/07/07 10:36:46;;;;;;;4.50;1.60;;;;;;;-148.88;83.26;75338.50;4993850;28;20433;-86
2022/07/07 10:39:13;;;;;;;6.15;1.80;;;;;;;-148.88;83.45;75301.94;4993652;28;20034;-87
2022/07/07 10:41:40;;;;;;;4.78;1.20;;;;;;;-148.88;78.06;75312.09;4994470;28;20117;-87
2022/07/07 10:44:09;;;;;;;7.22;1.70;;;;;;;-148.88;76.56;75277.59;4995042;28;20026;-85
2022/07/07 10:46:36;;;;;;;5.75;1.55;;;;;;;-148.88;77.93;75316.16;5000849;28;20472;-85
2022/07/07 10:49:10;;;;;;;3.28;1.40;;;;;;;-148.88;79.24;75342.56;5000519;28;20057;-83
2022/07/07 10:51:57;;;;;;;5.35;1.63;;;;;;;-148.88;80.00;75362.88;4995491;28;20026;-85
2022/07/07 10:54:38;;;;;;;4.07;1.40;;;;;;;-148.88;80.92;75356.78;4995022;28;20065;-86
2022/07/07 10:57:05;;;;;;;7.35;1.55;;;;;;;-148.88;80.67;75338.50;4994977;28;20030;-87
2022/07/07 10:59:56;;;;;;;5.15;1.50;;;;;;;-148.88;79.05;75306.00;5007792;23;20066;-77
2022/07/07 11:02:32;;;;;;;6.75;1.45;;;;;;;-148.88;78.83;75204.47;4973969;28;20039;-75
2022/07/07 11:04:59;;;;;;;5.40;1.50;;;;;;;-148.88;77.11;75208.53;4974527;28;20026;-76